Time;durP1;ratioP1;P1;durP2;ratioP2;P2;SDS_P1;SDS_P2;PMS_P1;PMS_P2;Temp;Humidity;BMP_temperature;BMP_pressure;BME280_temperature;BME280_humidity;BME280_pressure;Samples;Min_cycle;Max_cycle;Signal;HPM_P1;HPM_P2
2022/05/26 00:02:04;;;;;;;6.85;4.68;;;13.20;99.90;;;;;;5009515;28;20567;-74
2022/05/26 00:04:30;;;;;;;7.35;4.95;;;13.30;99.90;;;;;;4995128;28;20103;-74
2022/05/26 00:06:56;;;;;;;6.28;4.93;;;13.30;99.90;;;;;;5011913;28;20088;-74
2022/05/26 00:09:25;;;;;;;10.57;7.22;;;13.30;99.90;;;;;;5010073;28;20045;-75
2022/05/26 00:11:51;;;;;;;15.55;11.60;;;13.30;99.90;;;;;;5011404;28;20142;-75
2022/05/26 00:14:17;;;;;;;14.98;11.90;;;13.40;99.90;;;;;;5009825;28;20048;-75
2022/05/26 00:16:45;;;;;;;17.75;14.15;;;13.40;99.90;;;;;;5025892;28;20057;-74
2022/05/26 00:19:14;;;;;;;17.58;14.52;;;13.40;99.90;;;;;;5011545;28;20045;-73
2022/05/26 00:21:40;;;;;;;15.65;13.93;;;13.50;99.90;;;;;;5010968;28;20852;-73
2022/05/26 00:24:06;;;;;;;18.73;14.85;;;13.50;99.90;;;;;;5027210;28;20590;-74
2022/05/26 00:26:32;;;;;;;19.23;14.25;;;13.60;99.90;;;;;;5027543;28;20046;-74
2022/05/26 00:28:58;;;;;;;21.20;15.43;;;13.60;99.90;;;;;;5009024;28;20048;-74
2022/05/26 00:31:24;;;;;;;19.95;15.38;;;13.60;99.90;;;;;;5011465;28;20044;-74
2022/05/26 00:33:50;;;;;;;20.73;16.55;;;13.60;99.90;;;;;;5010854;28;20053;-74
2022/05/26 00:36:17;;;;;;;22.73;16.63;;;13.60;99.90;;;;;;5011179;28;20466;-74
2022/05/26 00:38:46;;;;;;;22.27;17.83;;;13.60;99.90;;;;;;5008236;28;20045;-73
2022/05/26 00:41:14;;;;;;;20.65;18.50;;;13.70;99.90;;;;;;5025026;28;20045;-74
2022/05/26 00:43:45;;;;;;;25.23;19.27;;;13.70;99.90;;;;;;5022372;28;20558;-74
2022/05/26 00:46:28;;;;;;;25.23;20.42;;;13.70;99.90;;;;;;5024990;28;20333;-74
2022/05/26 00:49:00;;;;;;;31.05;21.20;;;13.70;99.90;;;;;;5010728;28;20049;-73
2022/05/26 00:51:31;;;;;;;27.10;20.75;;;13.70;99.90;;;;;;5010727;28;20041;-73
2022/05/26 00:54:01;;;;;;;28.58;19.58;;;13.70;99.90;;;;;;5010704;28;20052;-74
2022/05/26 00:56:29;;;;;;;31.15;22.17;;;13.80;99.90;;;;;;5026671;28;20726;-73
2022/05/26 00:58:58;;;;;;;32.05;22.20;;;13.80;99.90;;;;;;5010290;28;20138;-73
2022/05/26 01:01:26;;;;;;;34.70;23.38;;;13.80;99.90;;;;;;5026652;28;20052;-74
2022/05/26 01:04:05;;;;;;;31.08;20.67;;;13.70;99.90;;;;;;5010113;28;20038;-74
2022/05/26 01:06:38;;;;;;;30.20;20.85;;;13.80;99.90;;;;;;5010382;28;20057;-73
2022/05/26 01:09:06;;;;;;;31.10;22.58;;;13.80;99.90;;;;;;5007984;28;20061;-74
2022/05/26 01:11:35;;;;;;;37.47;23.27;;;13.80;99.90;;;;;;4993591;28;20048;-73
2022/05/26 01:14:09;;;;;;;37.70;21.92;;;13.80;99.90;;;;;;5009507;28;20132;-74
2022/05/26 01:16:35;;;;;;;34.78;21.63;;;13.70;99.90;;;;;;5024871;28;20132;-75
2022/05/26 01:19:04;;;;;;;34.33;20.38;;;13.80;99.90;;;;;;5010511;28;20131;-74
2022/05/26 01:21:40;;;;;;;32.97;20.30;;;13.80;99.90;;;;;;5010351;28;20395;-74
2022/05/26 01:24:48;;;;;;;34.97;20.90;;;13.80;99.90;;;;;;5010355;28;20649;-74
2022/05/26 01:27:31;;;;;;;35.88;19.85;;;13.80;99.90;;;;;;5012050;28;20381;-74
2022/05/26 01:30:16;;;;;;;39.47;19.92;;;13.80;99.90;;;;;;5024953;28;20049;-73
2022/05/26 01:33:05;;;;;;;40.90;18.45;;;13.90;99.90;;;;;;5007925;28;20129;-73
2022/05/26 01:35:44;;;;;;;38.88;17.35;;;13.80;99.90;;;;;;5024496;28;20130;-73
2022/05/26 01:38:44;;;;;;;43.05;19.48;;;13.80;99.90;;;;;;5026614;28;20045;-73
2022/05/26 01:41:37;;;;;;;45.55;20.02;;;13.80;99.90;;;;;;5027096;28;20080;-73
2022/05/26 01:44:09;;;;;;;37.08;17.70;;;13.80;99.90;;;;;;5021939;28;20120;-74
2022/05/26 01:46:45;;;;;;;43.05;18.88;;;13.80;99.90;;;;;;5026042;28;20080;-74
2022/05/26 01:49:23;;;;;;;46.95;19.30;;;13.80;99.90;;;;;;5026056;28;20053;-74
2022/05/26 01:52:09;;;;;;;32.88;17.05;;;13.80;99.90;;;;;;5020879;28;20046;-73
2022/05/26 01:54:49;;;;;;;35.05;16.35;;;13.80;99.90;;;;;;5009420;28;20048;-74
2022/05/26 01:57:25;;;;;;;41.13;18.63;;;13.80;99.90;;;;;;5026305;28;20061;-74
2022/05/26 02:00:01;;;;;;;35.97;17.15;;;13.80;99.90;;;;;;5009360;28;20530;-74
2022/05/26 02:02:32;;;;;;;35.85;16.52;;;13.80;99.90;;;;;;5017565;28;20042;-74
2022/05/26 02:05:08;;;;;;;39.00;16.33;;;13.80;99.90;;;;;;5027248;28;20033;-74
2022/05/26 02:07:44;;;;;;;34.80;17.45;;;13.80;99.90;;;;;;5027974;28;20366;-74
2022/05/26 02:10:23;;;;;;;37.92;17.95;;;13.80;99.90;;;;;;5027816;28;20712;-74
2022/05/26 02:13:05;;;;;;;35.20;16.10;;;13.80;99.90;;;;;;5010920;28;20045;-74
2022/05/26 02:15:40;;;;;;;41.25;18.13;;;13.80;99.90;;;;;;4991529;28;20479;-73
2022/05/26 02:18:14;;;;;;;46.10;19.05;;;13.80;99.90;;;;;;5009183;28;20045;-73
2022/05/26 02:20:52;;;;;;;42.00;18.10;;;13.80;99.90;;;;;;5027346;28;20049;-73
2022/05/26 02:23:31;;;;;;;46.40;20.58;;;13.80;99.90;;;;;;5010802;28;20052;-73
2022/05/26 02:25:59;;;;;;;44.70;19.70;;;13.80;99.90;;;;;;5006873;28;20112;-73
2022/05/26 02:28:25;;;;;;;45.08;18.90;;;13.80;99.90;;;;;;5007899;28;20427;-73
2022/05/26 02:30:53;;;;;;;41.05;18.90;;;13.80;99.90;;;;;;5007372;28;20564;-72
2022/05/26 02:33:19;;;;;;;41.60;19.75;;;13.80;99.90;;;;;;5007478;28;20037;-73
2022/05/26 02:35:49;;;;;;;37.83;18.17;;;13.80;99.90;;;;;;5007502;28;20053;-73
2022/05/26 02:38:22;;;;;;;54.97;21.92;;;13.80;99.90;;;;;;5007725;28;20049;-73
2022/05/26 02:40:49;;;;;;;46.53;20.17;;;13.80;99.90;;;;;;5007995;28;20053;-73
2022/05/26 02:43:22;;;;;;;43.17;17.92;;;13.80;99.90;;;;;;5026025;28;20114;-73
2022/05/26 02:46:27;;;;;;;38.08;15.68;;;13.90;99.90;;;;;;4990657;28;20188;-73
2022/05/26 02:49:08;;;;;;;42.88;16.75;;;13.90;99.90;;;;;;5017998;28;20124;-73
2022/05/26 02:52:09;;;;;;;43.25;17.05;;;13.80;99.90;;;;;;5010997;28;20838;-73
2022/05/26 02:55:17;;;;;;;44.30;17.23;;;13.90;99.90;;;;;;5027163;28;20129;-73
2022/05/26 02:57:55;;;;;;;39.70;14.95;;;13.90;99.90;;;;;;5022980;28;20037;-73
2022/05/26 03:00:33;;;;;;;36.85;13.98;;;13.80;99.90;;;;;;5020482;28;20075;-73
2022/05/26 03:03:07;;;;;;;38.38;15.52;;;13.80;99.90;;;;;;5024871;28;20144;-73
2022/05/26 03:05:49;;;;;;;39.65;14.82;;;13.90;99.90;;;;;;5010753;28;20101;-73
2022/05/26 03:08:18;;;;;;;38.65;13.98;;;13.80;99.90;;;;;;5024354;28;20104;-74
2022/05/26 03:10:50;;;;;;;40.58;15.20;;;13.80;99.90;;;;;;5025609;28;20115;-73
2022/05/26 03:13:16;;;;;;;36.22;13.43;;;13.80;99.90;;;;;;5009919;28;20439;-73
2022/05/26 03:15:45;;;;;;;31.73;12.65;;;13.80;99.90;;;;;;5015731;28;20107;-73
2022/05/26 03:18:11;;;;;;;33.83;12.48;;;13.80;99.90;;;;;;5009676;28;20583;-73
2022/05/26 03:20:37;;;;;;;31.70;11.77;;;13.80;99.90;;;;;;5022169;28;20038;-73
2022/05/26 03:23:03;;;;;;;32.85;12.00;;;13.80;99.90;;;;;;4991945;28;20495;-74
2022/05/26 03:25:29;;;;;;;34.35;12.00;;;13.80;99.90;;;;;;5010516;28;20531;-74
2022/05/26 03:27:55;;;;;;;28.60;10.75;;;13.80;99.90;;;;;;5010145;28;20489;-74
2022/05/26 03:30:21;;;;;;;32.67;11.38;;;13.70;99.90;;;;;;5027054;28;20484;-73
2022/05/26 03:32:46;;;;;;;38.90;11.65;;;13.70;99.90;;;;;;5022566;28;20727;-73
2022/05/26 03:40:46;;;;;;;42.83;13.50;;;13.70;99.90;;;;;;5030408;28;20598;-73
2022/05/26 03:43:14;;;;;;;35.17;10.50;;;13.70;99.90;;;;;;5013547;28;20169;-73
2022/05/26 03:45:40;;;;;;;26.58;9.60;;;13.70;99.90;;;;;;4994459;28;20798;-73
2022/05/26 03:48:06;;;;;;;36.30;11.75;;;13.70;99.90;;;;;;5010316;28;20050;-73
2022/05/26 03:50:33;;;;;;;28.95;10.57;;;13.70;99.90;;;;;;5026809;28;20046;-73
2022/05/26 03:52:59;;;;;;;38.17;10.60;;;13.60;99.90;;;;;;4993737;28;20053;-73
2022/05/26 03:55:25;;;;;;;30.63;9.45;;;13.70;99.90;;;;;;5010282;28;20377;-73
2022/05/26 03:57:51;;;;;;;35.70;10.82;;;13.70;99.90;;;;;;5010274;28;20050;-74
2022/05/26 04:00:21;;;;;;;32.92;9.93;;;13.60;99.90;;;;;;5010614;28;20142;-73
2022/05/26 04:02:47;;;;;;;25.85;8.80;;;13.60;99.90;;;;;;5006563;28;20041;-74
2022/05/26 04:05:17;;;;;;;26.75;8.35;;;13.60;99.90;;;;;;5010601;28;20042;-73
2022/05/26 04:07:42;;;;;;;28.33;9.55;;;13.60;99.90;;;;;;5029252;28;20050;-74
2022/05/26 04:10:11;;;;;;;25.80;8.90;;;13.50;99.90;;;;;;5012578;28;20137;-73
2022/05/26 04:12:37;;;;;;;27.02;8.50;;;13.60;99.90;;;;;;5029778;28;20053;-73
2022/05/26 04:15:06;;;;;;;24.20;8.95;;;13.50;99.90;;;;;;5013347;28;20045;-74
2022/05/26 04:17:32;;;;;;;26.25;8.85;;;13.60;99.90;;;;;;5005873;28;20052;-73
2022/05/26 04:20:00;;;;;;;29.77;8.32;;;13.60;99.90;;;;;;5028974;28;20495;-73
2022/05/26 04:22:26;;;;;;;24.75;7.22;;;13.50;99.90;;;;;;5012809;28;20500;-73
2022/05/26 04:24:56;;;;;;;27.63;8.35;;;13.50;99.90;;;;;;5012561;28;20417;-74
2022/05/26 04:27:23;;;;;;;;;;;13.50;99.90;;;;;;5029483;28;20537;-74
2022/05/26 04:29:49;;;;;;;22.95;7.05;;;13.40;99.90;;;;;;5029612;28;19979;-74
2022/05/26 04:32:15;;;;;;;27.17;7.57;;;13.40;99.90;;;;;;5012755;28;20495;-73
2022/05/26 04:34:41;;;;;;;19.70;6.03;;;13.40;99.90;;;;;;5012016;28;20349;-73
2022/05/26 04:37:07;;;;;;;22.05;7.07;;;13.40;99.90;;;;;;5012482;28;20052;-73
2022/05/26 04:39:33;;;;;;;19.85;6.70;;;13.40;99.90;;;;;;5029604;28;20064;-73
2022/05/26 04:42:03;;;;;;;20.60;6.55;;;13.40;99.90;;;;;;4996555;28;20073;-73
2022/05/26 04:44:33;;;;;;;16.95;5.38;;;13.40;99.90;;;;;;5002585;28;20052;-74
2022/05/26 04:47:00;;;;;;;16.83;5.07;;;13.40;99.90;;;;;;5009490;28;20075;-74
2022/05/26 04:49:26;;;;;;;19.23;5.68;;;13.30;99.90;;;;;;5009926;28;20128;-74
2022/05/26 04:51:52;;;;;;;15.98;4.68;;;13.30;99.90;;;;;;5009689;28;20049;-74
2022/05/26 04:54:18;;;;;;;17.15;4.72;;;13.30;99.90;;;;;;5009266;28;20187;-74
2022/05/26 04:56:44;;;;;;;12.75;4.63;;;13.30;99.90;;;;;;5026074;28;20115;-73
2022/05/26 04:59:11;;;;;;;14.80;4.53;;;13.30;99.90;;;;;;4992697;28;20058;-74
2022/05/26 05:01:37;;;;;;;16.55;4.55;;;13.30;99.90;;;;;;5020731;28;20046;-73
2022/05/26 05:04:03;;;;;;;15.82;4.93;;;13.30;99.90;;;;;;5009101;28;20095;-74
2022/05/26 05:06:29;;;;;;;11.45;3.72;;;13.30;99.90;;;;;;5010504;28;20167;-74
2022/05/26 05:08:55;;;;;;;10.30;4.07;;;13.30;99.90;;;;;;5024258;28;20049;-74
2022/05/26 05:11:21;;;;;;;11.52;3.35;;;13.30;99.90;;;;;;5008075;28;20056;-73
2022/05/26 05:13:47;;;;;;;10.40;3.35;;;13.30;99.90;;;;;;5021397;28;20065;-73
2022/05/26 05:16:31;;;;;;;12.90;3.50;;;13.30;99.90;;;;;;5009489;28;20041;-73
2022/05/26 05:18:58;;;;;;;9.95;3.00;;;13.40;99.90;;;;;;5016433;28;20438;-73
2022/05/26 05:21:46;;;;;;;11.10;2.53;;;13.40;99.90;;;;;;5008033;28;20400;-73
2022/05/26 05:24:24;;;;;;;9.13;2.63;;;13.40;99.90;;;;;;5023808;28;20633;-74
2022/05/26 05:26:54;;;;;;;11.35;2.40;;;13.40;99.90;;;;;;5009777;28;20049;-74
2022/05/26 05:29:26;;;;;;;11.32;2.47;;;13.50;99.90;;;;;;5009021;28;20041;-74
2022/05/26 05:31:56;;;;;;;9.00;3.63;;;13.50;99.90;;;;;;5020152;28;20049;-73
2022/05/26 05:34:27;;;;;;;7.28;2.10;;;13.60;99.90;;;;;;5010876;28;20045;-73
2022/05/26 05:36:53;;;;;;;10.07;2.08;;;13.70;99.90;;;;;;5023455;28;20411;-74
2022/05/26 05:39:19;;;;;;;7.80;1.98;;;13.70;99.90;;;;;;5038663;28;20059;-74
2022/05/26 05:41:45;;;;;;;7.60;2.15;;;13.80;99.90;;;;;;5018093;28;20120;-73
2022/05/26 05:44:11;;;;;;;8.35;2.00;;;13.80;99.90;;;;;;5001633;28;20088;-74
2022/05/26 05:46:57;;;;;;;7.63;2.00;;;13.80;99.90;;;;;;5014703;28;20037;-74
2022/05/26 05:49:26;;;;;;;10.07;2.22;;;13.90;99.90;;;;;;5006030;28;20056;-75
2022/05/26 05:51:52;;;;;;;8.25;2.20;;;14.00;99.90;;;;;;5009365;28;20053;-75
2022/05/26 05:54:19;;;;;;;6.07;1.80;;;14.00;99.90;;;;;;5022706;28;20095;-74
2022/05/26 05:56:46;;;;;;;9.68;1.85;;;14.10;99.90;;;;;;5024003;28;20080;-74
2022/05/26 05:59:12;;;;;;;7.78;2.20;;;14.20;99.90;;;;;;5007142;28;20037;-74
2022/05/26 06:01:38;;;;;;;6.70;1.67;;;14.20;99.90;;;;;;5008481;28;20040;-75
2022/05/26 06:04:05;;;;;;;7.03;1.65;;;14.30;99.90;;;;;;4992144;28;20049;-75
2022/05/26 06:06:39;;;;;;;8.40;1.67;;;14.30;99.90;;;;;;5026192;28;20042;-75
2022/05/26 06:09:06;;;;;;;8.63;2.22;;;14.40;99.90;;;;;;5009564;28;20111;-75
2022/05/26 06:11:33;;;;;;;6.90;1.55;;;14.40;99.90;;;;;;5009840;28;20048;-74
2022/05/26 06:14:00;;;;;;;8.25;1.83;;;14.40;99.90;;;;;;5026300;28;20463;-75
2022/05/26 06:16:27;;;;;;;9.05;1.88;;;14.50;99.90;;;;;;5023827;28;20085;-74
2022/05/26 06:18:53;;;;;;;8.18;2.22;;;14.50;99.90;;;;;;5010532;28;20057;-75
2022/05/26 06:21:20;;;;;;;6.35;1.27;;;14.50;99.90;;;;;;4993780;28;20052;-75
2022/05/26 06:23:46;;;;;;;6.45;1.40;;;14.50;99.90;;;;;;5027224;28;20057;-74
2022/05/26 06:26:11;;;;;;;8.32;1.70;;;14.40;99.90;;;;;;4993453;28;20040;-74
2022/05/26 06:31:23;;;;;;;7.15;1.40;;;14.60;99.90;;;;;;5025997;28;20041;-74
2022/05/26 06:39:18;;;;;;;7.90;1.77;;;14.90;99.90;;;;;;5025972;28;20050;-75
2022/05/26 06:44:28;;;;;;;5.32;1.33;;;15.10;99.90;;;;;;5011680;28;20062;-73
2022/05/26 06:46:54;;;;;;;6.82;1.70;;;15.10;99.90;;;;;;5008614;28;20525;-74
2022/05/26 06:49:20;;;;;;;6.32;1.35;;;15.10;99.90;;;;;;5025077;28;20045;-73
2022/05/26 06:51:46;;;;;;;5.25;1.52;;;15.10;99.90;;;;;;5026083;28;20045;-73
2022/05/26 06:54:12;;;;;;;6.57;1.70;;;15.10;99.90;;;;;;5009464;28;20318;-74
2022/05/26 06:56:38;;;;;;;4.55;1.27;;;15.10;99.90;;;;;;5025507;28;20060;-73
2022/05/26 06:59:04;;;;;;;5.35;1.45;;;15.20;99.90;;;;;;5011850;28;20045;-73
2022/05/26 07:01:31;;;;;;;6.00;1.52;;;15.20;99.90;;;;;;5029490;28;20049;-73
2022/05/26 07:03:57;;;;;;;4.43;1.23;;;15.30;99.90;;;;;;5012110;28;20072;-73
2022/05/26 07:06:27;;;;;;;5.65;1.45;;;15.40;99.90;;;;;;5012998;28;20037;-73
2022/05/26 07:08:53;;;;;;;4.20;1.40;;;15.50;99.90;;;;;;5029630;28;20130;-74
2022/05/26 07:11:20;;;;;;;7.28;1.35;;;15.70;99.90;;;;;;4995598;28;20561;-73
2022/05/26 07:13:46;;;;;;;4.88;1.02;;;15.90;99.90;;;;;;5013271;28;20042;-73
2022/05/26 07:16:16;;;;;;;6.88;1.38;;;16.00;99.90;;;;;;5029639;28;20064;-73
2022/05/26 07:18:42;;;;;;;7.05;1.20;;;16.00;99.90;;;;;;5012780;28;20495;-73
2022/05/26 07:21:10;;;;;;;4.38;1.05;;;16.00;99.90;;;;;;5029040;28;20595;-73
2022/05/26 07:23:36;;;;;;;4.00;1.25;;;16.10;99.90;;;;;;5028446;28;20168;-73
2022/05/26 07:26:07;;;;;;;5.25;0.90;;;16.10;99.90;;;;;;5012386;28;20153;-73
2022/05/26 07:28:40;;;;;;;5.35;1.30;;;16.10;99.90;;;;;;5025916;28;20095;-72
2022/05/26 07:31:07;;;;;;;6.32;1.20;;;16.10;99.90;;;;;;5012529;28;20045;-72
2022/05/26 07:33:33;;;;;;;4.50;1.20;;;16.10;99.90;;;;;;5013080;28;20387;-72
2022/05/26 07:35:59;;;;;;;4.40;1.40;;;16.10;99.90;;;;;;5012561;28;20046;-72
2022/05/26 07:41:26;;;;;;;3.78;1.00;;;16.10;99.90;;;;;;5015715;28;20077;-71
2022/05/26 07:43:58;;;;;;;6.30;1.38;;;16.20;99.90;;;;;;5028089;28;20467;-74
2022/05/26 07:46:26;;;;;;;6.03;1.70;;;16.30;99.90;;;;;;5028720;28;20091;-72
2022/05/26 07:48:52;;;;;;;4.47;1.30;;;16.30;99.90;;;;;;5025696;28;20128;-72
2022/05/26 07:51:21;;;;;;;4.10;1.00;;;16.50;99.90;;;;;;5012201;28;20033;-73
2022/05/26 07:53:48;;;;;;;7.43;1.23;;;16.60;99.90;;;;;;5029624;28;20041;-73
2022/05/26 07:56:14;;;;;;;4.85;1.00;;;16.70;99.90;;;;;;5012766;28;20045;-72
2022/05/26 07:58:40;;;;;;;3.78;1.00;;;16.90;99.90;;;;;;4996615;28;20439;-72
2022/05/26 08:01:07;;;;;;;3.70;0.90;;;17.00;99.90;;;;;;5012325;28;20041;-72
2022/05/26 08:03:34;;;;;;;4.60;0.85;;;17.00;99.90;;;;;;5011463;28;20099;-72
2022/05/26 08:06:01;;;;;;;5.03;1.17;;;17.00;99.90;;;;;;5029007;28;20411;-73
2022/05/26 08:08:27;;;;;;;8.23;1.50;;;17.10;99.90;;;;;;5028868;28;20033;-73
2022/05/26 08:10:52;;;;;;;4.00;0.80;;;17.30;99.90;;;;;;5028743;28;20051;-73
2022/05/26 08:13:19;;;;;;;4.55;1.10;;;17.40;99.90;;;;;;5012470;28;20065;-73
2022/05/26 08:15:46;;;;;;;3.88;0.90;;;17.40;99.90;;;;;;5012678;28;20042;-73
2022/05/26 08:18:12;;;;;;;5.15;1.25;;;17.50;99.90;;;;;;5010956;28;20389;-73
2022/05/26 08:20:38;;;;;;;5.80;1.02;;;17.60;99.90;;;;;;5011785;28;20057;-72
2022/05/26 08:23:05;;;;;;;7.15;1.45;;;17.70;99.90;;;;;;5027493;28;20049;-73
2022/05/26 08:25:31;;;;;;;4.78;1.02;;;17.80;99.90;;;;;;4994918;28;20121;-73
2022/05/26 08:27:57;;;;;;;4.07;1.00;;;18.00;99.90;;;;;;5011263;28;20132;-73
2022/05/26 08:30:23;;;;;;;6.13;0.75;;;18.10;99.90;;;;;;5011645;28;20395;-73
2022/05/26 08:32:52;;;;;;;5.30;1.02;;;18.00;99.90;;;;;;5011509;28;20052;-73
2022/05/26 08:35:18;;;;;;;6.13;1.35;;;17.90;99.90;;;;;;5027804;28;20056;-73
2022/05/26 08:37:50;;;;;;;4.97;0.90;;;17.90;99.90;;;;;;5012496;28;20423;-72
2022/05/26 08:40:50;;;;;;;5.60;1.00;;;18.00;99.90;;;;;;4992672;28;20466;-72
2022/05/26 08:43:27;;;;;;;3.22;0.93;;;18.10;99.90;;;;;;4985039;28;20049;-72
2022/05/26 08:45:54;;;;;;;4.72;0.90;;;18.10;99.90;;;;;;5011024;28;20042;-71
2022/05/26 08:48:39;;;;;;;4.00;1.05;;;18.20;99.90;;;;;;5007739;28;20456;-72
2022/05/26 08:51:06;;;;;;;4.60;0.75;;;18.40;99.90;;;;;;5011164;28;20072;-72
2022/05/26 08:53:39;;;;;;;5.22;0.70;;;18.60;99.90;;;;;;5027542;28;20040;-72
2022/05/26 08:56:08;;;;;;;5.38;1.00;;;18.80;99.90;;;;;;5011133;28;20637;-71
2022/05/26 08:58:47;;;;;;;5.70;0.85;;;18.90;99.90;;;;;;5027429;28;20443;-72
2022/05/26 09:01:16;;;;;;;5.67;0.93;;;19.10;99.90;;;;;;5024836;28;20045;-72
2022/05/26 09:03:42;;;;;;;4.80;0.85;;;19.20;99.90;;;;;;5026498;28;20044;-72
2022/05/26 09:06:12;;;;;;;5.00;0.57;;;19.20;99.90;;;;;;5043677;28;20059;-72
2022/05/26 09:14:32;;;;;;;3.95;0.75;;;18.90;99.90;;;;;;5025936;28;20049;-72
2022/05/26 09:17:01;;;;;;;4.20;0.60;;;18.90;99.90;;;;;;5010895;28;20057;-75
2022/05/26 09:19:49;;;;;;;4.20;0.87;;;18.90;99.90;;;;;;5026198;28;20041;-72
2022/05/26 09:22:29;;;;;;;3.20;0.80;;;18.80;99.90;;;;;;5008513;28;20478;-72
2022/05/26 09:24:59;;;;;;;4.30;0.60;;;18.70;99.90;;;;;;5010613;28;20396;-72
2022/05/26 09:27:36;;;;;;;5.50;0.90;;;18.60;99.90;;;;;;5007444;28;20046;-72
2022/05/26 09:30:23;;;;;;;5.03;1.27;;;18.70;99.90;;;;;;5027015;28;20092;-72
2022/05/26 09:32:50;;;;;;;4.28;1.25;;;18.80;99.90;;;;;;5010389;28;20045;-72
2022/05/26 09:35:19;;;;;;;4.45;0.65;;;18.90;99.90;;;;;;5010438;28;20496;-72
2022/05/26 09:37:50;;;;;;;6.18;1.13;;;19.00;99.90;;;;;;5024066;28;20052;-72
2022/05/26 09:40:27;;;;;;;3.05;0.55;;;19.20;99.90;;;;;;5024557;28;20128;-73
2022/05/26 09:43:03;;;;;;;3.53;0.63;;;19.40;99.90;;;;;;5025866;28;20041;-73
2022/05/26 09:45:44;;;;;;;2.47;0.60;;;19.60;99.90;;;;;;5010514;28;20045;-74
2022/05/26 09:48:29;;;;;;;4.88;0.70;;;19.80;99.90;;;;;;5010377;28;20041;-72
2022/05/26 09:51:25;;;;;;;3.92;0.75;;;20.00;99.90;;;;;;5026229;28;20085;-73
2022/05/26 09:53:53;;;;;;;3.15;0.65;;;19.90;99.90;;;;;;5010540;28;20033;-73
2022/05/26 09:56:38;;;;;;;4.18;0.98;;;19.50;99.90;;;;;;5009777;28;20519;-72
2022/05/26 09:59:24;;;;;;;3.47;0.70;;;19.20;99.90;;;;;;5026380;28;20052;-72
2022/05/26 10:01:52;;;;;;;2.47;0.60;;;18.90;99.90;;;;;;5009799;28;20110;-72
2022/05/26 10:04:49;;;;;;;2.65;0.60;;;18.80;99.90;;;;;;5026025;28;20499;-73
2022/05/26 10:07:50;;;;;;;4.72;0.75;;;19.00;99.90;;;;;;5026395;28;20052;-73
2022/05/26 10:10:27;;;;;;;5.32;0.77;;;19.10;99.90;;;;;;5026136;28;20053;-73
2022/05/26 10:13:05;;;;;;;4.85;0.63;;;19.10;99.90;;;;;;5023002;28;20053;-72
2022/05/26 10:15:36;;;;;;;5.10;1.00;;;19.20;99.90;;;;;;5026270;28;20041;-73
2022/05/26 10:18:26;;;;;;;3.85;0.70;;;19.20;99.90;;;;;;5025868;28;20050;-72
2022/05/26 10:21:13;;;;;;;4.57;0.68;;;19.00;99.90;;;;;;5025945;28;20053;-72
2022/05/26 10:24:06;;;;;;;4.47;0.73;;;18.90;99.90;;;;;;5025735;28;20051;-73
2022/05/26 10:26:49;;;;;;;5.63;0.82;;;18.80;99.90;;;;;;5025704;28;20500;-73
2022/05/26 10:29:24;;;;;;;7.80;1.90;;;18.90;99.90;;;;;;5009577;28;20043;-71
2022/05/26 10:32:18;;;;;;;4.15;0.88;;;19.00;99.90;;;;;;5008902;28;20055;-71
2022/05/26 10:35:14;;;;;;;4.80;0.90;;;19.30;99.90;;;;;;5023084;28;20464;-72
2022/05/26 10:38:05;;;;;;;6.93;1.60;;;19.40;99.90;;;;;;5024278;28;20178;-72
2022/05/26 10:40:43;;;;;;;4.97;1.10;;;19.30;99.90;;;;;;5021863;28;20050;-73
2022/05/26 10:43:18;;;;;;;6.15;1.83;;;19.20;99.90;;;;;;5009133;28;20045;-72
2022/05/26 10:45:51;;;;;;;5.40;1.02;;;19.30;99.90;;;;;;5008951;28;20052;-72
2022/05/26 10:48:29;;;;;;;4.75;1.10;;;19.40;99.90;;;;;;5025704;28;20507;-73
2022/05/26 10:51:08;;;;;;;5.53;1.10;;;19.20;99.90;;;;;;5009144;28;20519;-74
2022/05/26 10:53:45;;;;;;;5.88;1.20;;;19.00;99.90;;;;;;5009444;28;20504;-71
2022/05/26 10:56:39;;;;;;;4.25;1.00;;;18.70;99.90;;;;;;5009399;28;20475;-71
2022/05/26 10:59:23;;;;;;;5.45;1.20;;;18.40;99.90;;;;;;5025520;28;20042;-72
2022/05/26 11:02:07;;;;;;;6.85;1.58;;;18.20;99.90;;;;;;5025254;28;20522;-72
2022/05/26 11:04:44;;;;;;;6.55;1.63;;;18.00;99.90;;;;;;5025445;28;20046;-73
2022/05/26 11:07:17;;;;;;;6.55;1.50;;;17.90;99.90;;;;;;5026261;28;20041;-72
2022/05/26 11:09:51;;;;;;;6.90;1.98;;;18.00;99.90;;;;;;5026464;28;20447;-72
2022/05/26 11:12:37;;;;;;;5.18;1.50;;;18.30;99.90;;;;;;5023663;28;20057;-72
2022/05/26 11:18:06;;;;;;;7.90;1.92;;;18.50;99.90;;;;;;5025724;28;20056;-72
2022/05/26 11:20:38;;;;;;;5.63;1.70;;;18.40;99.90;;;;;;5009349;28;20426;-73
2022/05/26 11:23:06;;;;;;;3.65;1.30;;;18.40;99.90;;;;;;5024416;28;20049;-73
2022/05/26 11:25:43;;;;;;;6.32;1.80;;;18.30;99.90;;;;;;5008921;28;20038;-73
2022/05/26 11:28:34;;;;;;;4.70;1.70;;;18.30;99.90;;;;;;5008071;28;20038;-72
2022/05/26 11:36:53;;;;;;;8.30;1.60;;;18.20;99.90;;;;;;4999463;28;20558;-72
2022/05/26 11:39:24;;;;;;;6.03;1.50;;;18.40;99.90;;;;;;5025185;28;20439;-72
2022/05/26 11:42:03;;;;;;;5.13;1.58;;;18.50;99.90;;;;;;5021590;28;20127;-73
2022/05/26 11:44:36;;;;;;;6.45;2.15;;;18.40;99.90;;;;;;5010717;28;20053;-72
2022/05/26 11:48:00;;;;;;;6.30;1.77;;;18.20;99.90;;;;;;5029172;28;20375;-72
2022/05/26 11:50:28;;;;;;;5.00;1.20;;;18.10;99.90;;;;;;4952279;28;20047;-73
2022/05/26 11:52:54;;;;;;;5.65;1.38;;;18.40;99.90;;;;;;4952512;28;20602;-72
2022/05/26 11:55:47;;;;;;;4.65;1.33;;;18.60;99.90;;;;;;4981305;28;20136;-72
2022/05/26 11:58:29;;;;;;;4.53;0.98;;;18.50;99.90;;;;;;5012243;28;20041;-73
2022/05/26 12:01:15;;;;;;;5.82;1.33;;;18.40;99.90;;;;;;5028824;28;20101;-72
2022/05/26 12:03:53;;;;;;;4.97;1.15;;;18.20;99.90;;;;;;5027154;28;20825;-71
2022/05/26 12:06:33;;;;;;;3.38;1.00;;;18.10;99.90;;;;;;5025177;28;20065;-72
2022/05/26 12:09:04;;;;;;;;;;;18.10;99.90;;;;;;5023650;28;20048;-76
2022/05/26 12:11:49;;;;;;;8.98;2.03;;;18.10;99.90;;;;;;5012014;28;19925;-72
2022/05/26 12:14:26;;;;;;;5.53;1.30;;;18.20;99.90;;;;;;5027751;28;20053;-74
2022/05/26 12:17:12;;;;;;;6.30;1.10;;;18.30;99.90;;;;;;5027990;28;20495;-72
2022/05/26 12:19:43;;;;;;;5.50;1.30;;;18.20;99.90;;;;;;5028623;28;20562;-71
2022/05/26 12:22:41;;;;;;;3.00;1.10;;;18.30;99.90;;;;;;5011482;28;20641;-72
2022/05/26 12:25:30;;;;;;;5.47;1.23;;;18.20;99.90;;;;;;5022488;28;20048;-73
2022/05/26 12:28:31;;;;;;;8.05;1.48;;;18.30;99.90;;;;;;5028548;28;20049;-72
2022/05/26 12:30:57;;;;;;;5.97;1.60;;;18.40;99.90;;;;;;5023548;28;20511;-72
2022/05/26 12:33:36;;;;;;;8.27;1.23;;;18.60;99.90;;;;;;5028436;28;20048;-70
2022/05/26 12:36:30;;;;;;;6.10;1.20;;;18.70;99.90;;;;;;5009536;28;20033;-71
2022/05/26 12:39:17;;;;;;;3.65;1.20;;;18.80;99.90;;;;;;5028697;28;20330;-71
2022/05/26 12:41:49;;;;;;;4.95;1.20;;;18.80;99.90;;;;;;5025670;28;20369;-72
2022/05/26 12:44:21;;;;;;;4.93;1.10;;;18.60;99.90;;;;;;5028152;28;20057;-71
2022/05/26 12:47:12;;;;;;;5.07;1.60;;;18.50;99.90;;;;;;5027467;28;20525;-72
2022/05/26 12:50:00;;;;;;;5.13;1.20;;;18.60;99.90;;;;;;5000830;28;20050;-72
2022/05/26 12:52:39;;;;;;;4.97;1.30;;;18.70;99.90;;;;;;5010906;28;20045;-72
2022/05/26 12:55:18;;;;;;;4.35;1.20;;;18.80;99.90;;;;;;5026836;28;20037;-71
2022/05/26 12:58:02;;;;;;;8.27;1.75;;;19.00;99.90;;;;;;5011144;28;20092;-71
2022/05/26 13:00:37;;;;;;;6.15;1.20;;;19.20;99.90;;;;;;5027681;28;20046;-72
2022/05/26 13:03:42;;;;;;;5.13;1.08;;;19.30;99.90;;;;;;5011392;28;20046;-72
2022/05/26 13:06:11;;;;;;;5.22;1.08;;;19.20;99.90;;;;;;4996525;28;20137;-71
2022/05/26 13:08:51;;;;;;;6.13;1.40;;;19.20;99.90;;;;;;5010829;28;20401;-72
2022/05/26 13:11:25;;;;;;;7.78;1.60;;;19.30;99.90;;;;;;5023293;28;20112;-71
2022/05/26 13:13:55;;;;;;;6.40;1.30;;;19.20;99.90;;;;;;5027003;28;20488;-71
2022/05/26 13:16:41;;;;;;;5.10;1.20;;;19.20;99.90;;;;;;5010224;28;20050;-71
2022/05/26 13:19:21;;;;;;;6.20;1.35;;;19.20;99.90;;;;;;5026519;28;20511;-72
2022/05/26 13:21:52;;;;;;;5.18;1.25;;;19.20;99.90;;;;;;5026946;28;20463;-71
2022/05/26 13:24:23;;;;;;;6.28;1.02;;;19.20;99.90;;;;;;5010188;28;20041;-72
2022/05/26 13:26:54;;;;;;;5.90;1.08;;;19.20;99.90;;;;;;5026738;28;20045;-72
2022/05/26 13:29:20;;;;;;;5.82;1.40;;;19.10;99.90;;;;;;5026610;28;20056;-71
2022/05/26 13:34:34;;;;;;;6.13;1.20;;;19.00;99.90;;;;;;5026717;28;20058;-72
2022/05/26 13:37:15;;;;;;;7.82;1.55;;;18.90;99.90;;;;;;5010095;28;20479;-72
2022/05/26 13:39:42;;;;;;;7.70;1.58;;;18.80;99.90;;;;;;5026976;28;20123;-73
2022/05/26 13:42:08;;;;;;;4.53;1.02;;;18.70;99.90;;;;;;5008399;28;20581;-73
2022/05/26 13:44:37;;;;;;;6.45;1.02;;;18.70;99.90;;;;;;5043094;28;20500;-72
2022/05/26 13:47:06;;;;;;;6.80;1.27;;;18.70;99.90;;;;;;5010409;28;20049;-73
2022/05/26 13:49:43;;;;;;;4.80;1.30;;;18.70;99.90;;;;;;5027140;28;20053;-73